Wanilla, Mississippi
Current Conditions -  °F | °C
As of 11:55 AM on Friday 21 Nov 2014 (Local Time) from K1R7 Reporting Station
Scattered Clouds Scattered Clouds  
Wind Chill: 66°   Ceiling: Unl
Heat Index: 66°   Visibility: 10mi
Dew Point: 46°   Wind: 9mph
Humidity: 49%   Direction: 120°ESE
Pressure: 30.3"   Gusts: NA
Location:  31.4742°N, 90.119°W
Report Text: K1R7 211755Z AUTO 12008KT 010V020 10SM SCT100 19/08 A3030 RMK AO2
Loading
Personal Weather Stations






























Interactive Weather Map New forecast layout! Learn more

10-Day Weather Forecast

Advertisements
Track Severe Weather on mobile